Main page
METAR-TAF:

METAR-TAF

Airports :

Tallahassee International Airport

Tallahassee, Florida, United States

latitude: 30-23-35N, longitude: 084-21-12W, elevation: 79 ft

Current weather observation

The report was made 34 minutes ago, at 07:53 UTC
Wind 8 mph from the East/Southeast
Temperature 66°F
Humidity 78%
Pressure 30.13 in. Hg
Visibility: 10 miles
Clear sky

METAR: KTLH 180753Z AUTO 11007KT 10SM CLR 19/15 A3013 RMK AO2 SLP200 T01890150

Time: 04:27 (08:27 UTC)

Forecast

The report was made 3 hours and 7 minutes ago, at 05:20 UTC
Forecast valid from 18 at 06 UTC to 19 at 06 UTC
Wind 8 mph from the East
Visibility: 6 miles
Scattered clouds at a height of 25000 ft
From 18 at 1400 UTC
Wind 14 mph from the East/Southeast with gusts up to 21 mph
Visibility: 6 miles
Scattered clouds at a height of 25000 ft
From 19 at 0000 UTC
Wind 13 mph from the East
Visibility: 6 miles
Scattered clouds at a height of 25000 ft

TAF: KTLH 180520Z 1806/1906 10007KT P6SM SCT250 FM181400 11012G18KT P6SM SCT250 FM190000 10011KT P6SM SCT250

Weather observations and forecasts of more than 4000 airports (METAR and TAF reports).

The available stations are represented by yellow and red dots on the map.

Hover mouse over dot to see the name of the station.

Then click to see weather observations and forecasts.

To change the map : click on the green buttons with a black cross to zoom in, on the green button with a dash to zoom out, or on the green arrows for adjacent maps.


METAR-TAF: